createdAt,value
2023-03-30T00:02:00.166Z,59.30
2023-03-30T00:04:28.398Z,59.50
2023-03-30T00:06:56.832Z,59.40
2023-03-30T00:09:24.813Z,59.30
2023-03-30T00:11:55.417Z,59.20
2023-03-30T00:14:32.298Z,59.20
2023-03-30T00:17:00.974Z,59.20
2023-03-30T00:19:30.620Z,59.10
2023-03-30T00:21:59.000Z,59.10
2023-03-30T00:24:27.064Z,59.00
2023-03-30T00:26:55.861Z,59.10
2023-03-30T00:29:23.719Z,59.10
2023-03-30T00:31:52.351Z,59.10
2023-03-30T00:34:20.905Z,59.20
2023-03-30T00:36:53.840Z,59.20
2023-03-30T00:39:23.602Z,59.40
2023-03-30T00:41:52.710Z,59.30
2023-03-30T00:44:58.519Z,59.20
2023-03-30T00:47:26.904Z,59.20
2023-03-30T00:49:55.820Z,59.30
2023-03-30T00:52:25.641Z,59.30
2023-03-30T00:54:56.048Z,59.40
2023-03-30T00:57:27.569Z,59.50
2023-03-30T00:59:56.716Z,59.50
2023-03-30T01:02:25.460Z,59.60
2023-03-30T01:04:56.717Z,59.80
2023-03-30T01:07:26.051Z,59.80
2023-03-30T01:09:55.339Z,59.70
2023-03-30T01:12:24.129Z,59.80
2023-03-30T01:14:52.288Z,59.90
2023-03-30T01:17:33.728Z,60.00
2023-03-30T01:20:49.663Z,60.10
2023-03-30T01:23:38.013Z,60.20
2023-03-30T01:26:15.032Z,60.00
2023-03-30T01:29:44.662Z,60.10
2023-03-30T01:32:53.578Z,60.30
2023-03-30T01:35:27.559Z,60.30
2023-03-30T01:38:32.406Z,60.50
2023-03-30T01:41:13.293Z,60.80
2023-03-30T01:44:09.920Z,60.70
2023-03-30T01:47:16.777Z,61.20
2023-03-30T01:49:50.172Z,61.50
2023-03-30T01:52:29.091Z,61.40
2023-03-30T01:55:10.482Z,62.30
2023-03-30T01:58:08.386Z,62.20
2023-03-30T02:00:41.398Z,62.10
2023-03-30T02:03:17.960Z,62.20
2023-03-30T02:05:48.777Z,62.40
2023-03-30T02:08:22.260Z,62.60
2023-03-30T02:10:52.272Z,62.40
2023-03-30T02:13:21.771Z,62.30
2023-03-30T02:15:56.262Z,62.20
2023-03-30T02:18:24.784Z,62.30
2023-03-30T02:20:52.755Z,62.20
2023-03-30T02:23:24.241Z,62.20
2023-03-30T02:25:57.288Z,62.30
2023-03-30T02:28:26.002Z,62.30
2023-03-30T02:30:55.483Z,62.80
2023-03-30T02:33:35.655Z,62.50
2023-03-30T02:36:42.318Z,62.60
2023-03-30T02:39:41.367Z,62.70
2023-03-30T02:42:22.318Z,62.50
2023-03-30T02:45:28.424Z,62.80
2023-03-30T02:48:21.023Z,62.50
2023-03-30T02:50:55.027Z,62.50
2023-03-30T02:53:49.836Z,62.50
2023-03-30T02:56:45.767Z,62.60
2023-03-30T02:59:52.837Z,62.60
2023-03-30T03:02:29.610Z,62.50
2023-03-30T03:05:13.153Z,62.40
2023-03-30T03:08:16.078Z,62.40
2023-03-30T03:10:45.988Z,62.30
2023-03-30T03:13:16.570Z,62.40
2023-03-30T03:15:46.815Z,62.30
2023-03-30T03:18:15.070Z,62.30
2023-03-30T03:20:43.966Z,62.40
2023-03-30T03:23:12.997Z,62.50
2023-03-30T03:25:48.749Z,62.50
2023-03-30T03:28:19.752Z,62.50
2023-03-30T03:30:50.650Z,62.60
2023-03-30T03:33:22.373Z,62.80
2023-03-30T03:36:00.680Z,62.50
2023-03-30T03:38:33.445Z,62.60
2023-03-30T03:41:01.826Z,62.60
2023-03-30T03:43:32.590Z,62.60
2023-03-30T03:46:00.690Z,62.60
2023-03-30T03:48:29.245Z,62.60
2023-03-30T03:50:59.649Z,62.60
2023-03-30T03:53:32.871Z,62.60
2023-03-30T03:56:05.526Z,62.80
2023-03-30T03:58:34.939Z,62.70
2023-03-30T04:01:03.927Z,62.80
2023-03-30T04:03:33.944Z,62.80
2023-03-30T04:06:02.780Z,62.90
2023-03-30T04:08:31.329Z,62.90
2023-03-30T04:11:12.344Z,62.90
2023-03-30T04:14:01.761Z,62.90
2023-03-30T04:16:49.357Z,62.80
2023-03-30T04:19:39.395Z,62.90
2023-03-30T04:22:33.371Z,62.80
2023-03-30T04:25:22.998Z,62.80
2023-03-30T04:28:08.131Z,62.80
2023-03-30T04:31:11.448Z,62.80
2023-03-30T04:34:09.925Z,62.70
2023-03-30T04:36:58.876Z,62.60
2023-03-30T04:39:30.574Z,62.60
2023-03-30T04:42:37.981Z,62.60
2023-03-30T04:45:26.247Z,62.60
2023-03-30T04:48:33.254Z,62.70
2023-03-30T04:51:27.331Z,62.70
2023-03-30T04:54:22.341Z,62.60
2023-03-30T04:57:11.061Z,62.60
2023-03-30T05:00:10.278Z,62.80
2023-03-30T05:02:56.891Z,62.80
2023-03-30T05:05:45.752Z,62.70
2023-03-30T05:08:49.051Z,62.90
2023-03-30T05:11:37.595Z,63.00
2023-03-30T05:14:24.184Z,63.10
2023-03-30T05:17:13.623Z,63.10
2023-03-30T05:20:15.458Z,63.20
2023-03-30T05:22:55.327Z,63.20
2023-03-30T05:25:46.957Z,63.20
2023-03-30T05:28:43.271Z,63.20
2023-03-30T05:31:25.332Z,63.20
2023-03-30T05:34:17.940Z,63.30
2023-03-30T05:36:51.629Z,63.20
2023-03-30T05:39:41.485Z,63.30
2023-03-30T05:42:32.513Z,63.40
2023-03-30T05:45:11.617Z,63.40
2023-03-30T05:48:02.234Z,63.50
2023-03-30T05:51:09.184Z,63.50
2023-03-30T05:53:55.168Z,63.40
2023-03-30T05:56:43.819Z,63.30
2023-03-30T05:59:37.625Z,63.30
2023-03-30T06:02:41.639Z,63.30
2023-03-30T06:05:15.462Z,63.10
2023-03-30T06:07:46.126Z,63.10
2023-03-30T06:10:14.359Z,63.20
2023-03-30T06:12:43.975Z,63.30
2023-03-30T06:15:26.595Z,63.30
2023-03-30T06:18:10.002Z,63.40
2023-03-30T06:20:41.782Z,63.40
2023-03-30T06:23:11.289Z,63.50
2023-03-30T06:25:39.667Z,63.50
2023-03-30T06:28:08.773Z,63.60
2023-03-30T06:30:36.844Z,63.90
2023-03-30T06:33:10.611Z,63.70
2023-03-30T06:35:49.378Z,63.20
2023-03-30T06:38:23.279Z,62.90
2023-03-30T06:40:53.407Z,62.70
2023-03-30T06:43:25.082Z,62.70
2023-03-30T06:45:59.426Z,62.50
2023-03-30T06:48:28.165Z,62.60
2023-03-30T06:51:20.300Z,63.70
2023-03-30T06:53:48.980Z,64.00
2023-03-30T06:56:17.168Z,63.20
2023-03-30T06:59:03.358Z,63.30
2023-03-30T07:01:32.499Z,62.40
2023-03-30T07:04:27.079Z,61.30
2023-03-30T07:07:15.613Z,60.80
2023-03-30T07:09:43.882Z,61.10
2023-03-30T07:12:13.013Z,61.20
2023-03-30T07:14:41.153Z,61.20
2023-03-30T07:17:09.833Z,61.30
2023-03-30T07:19:39.023Z,61.10
2023-03-30T07:22:07.625Z,60.90
2023-03-30T07:24:37.526Z,61.00
2023-03-30T07:27:06.036Z,61.10
2023-03-30T07:29:35.021Z,60.90
2023-03-30T07:32:06.692Z,61.10
2023-03-30T07:34:35.058Z,61.90
2023-03-30T07:37:03.830Z,61.90
2023-03-30T07:39:34.027Z,60.30
2023-03-30T07:42:05.311Z,59.50
2023-03-30T07:44:33.281Z,60.10
2023-03-30T07:47:07.290Z,61.20
2023-03-30T07:49:37.356Z,60.50
2023-03-30T07:52:07.836Z,59.10
2023-03-30T07:54:45.142Z,58.30
2023-03-30T07:57:18.655Z,57.50
2023-03-30T07:59:47.122Z,56.60
2023-03-30T08:02:29.913Z,55.70
2023-03-30T08:04:58.488Z,56.00
2023-03-30T08:07:35.818Z,56.00
2023-03-30T08:10:13.829Z,55.10
2023-03-30T08:12:42.692Z,54.60
2023-03-30T08:15:11.080Z,55.00
2023-03-30T08:17:39.638Z,55.60
2023-03-30T08:20:11.293Z,55.80
2023-03-30T08:22:39.833Z,56.20
2023-03-30T08:25:08.115Z,56.00
2023-03-30T08:27:37.234Z,55.60
2023-03-30T08:30:05.951Z,55.30
2023-03-30T08:32:34.454Z,54.90
2023-03-30T08:35:02.937Z,55.10
2023-03-30T08:37:31.938Z,55.20
2023-03-30T08:40:00.015Z,55.30
2023-03-30T08:42:51.313Z,55.40
2023-03-30T08:45:19.386Z,55.60
2023-03-30T08:47:50.807Z,55.70
2023-03-30T08:50:37.335Z,55.60
2023-03-30T08:53:07.571Z,55.50
2023-03-30T08:56:00.103Z,55.60
2023-03-30T08:58:48.461Z,55.60
2023-03-30T09:01:30.008Z,55.50
2023-03-30T09:04:17.489Z,55.60
2023-03-30T09:07:07.963Z,55.90
2023-03-30T09:09:44.752Z,55.80
2023-03-30T09:12:37.715Z,54.70
2023-03-30T09:15:15.299Z,54.20
2023-03-30T09:17:49.237Z,54.30
2023-03-30T09:20:25.970Z,54.30
2023-03-30T09:22:56.184Z,54.30
2023-03-30T09:25:51.632Z,53.30
2023-03-30T09:28:39.447Z,51.90
2023-03-30T09:31:38.311Z,50.40
2023-03-30T09:34:17.976Z,50.30
2023-03-30T09:37:01.330Z,50.60
2023-03-30T09:39:32.280Z,50.20
2023-03-30T09:42:12.210Z,50.10
2023-03-30T09:44:53.284Z,49.80
2023-03-30T09:47:31.550Z,50.60
2023-03-30T09:50:06.435Z,51.10
2023-03-30T09:52:38.095Z,51.50
2023-03-30T09:55:34.932Z,51.40
2023-03-30T09:58:20.723Z,51.50
2023-03-30T10:01:07.461Z,51.50
2023-03-30T10:03:36.502Z,51.50
2023-03-30T10:06:25.083Z,52.00
2023-03-30T10:08:56.637Z,52.30
2023-03-30T10:11:36.690Z,52.60
2023-03-30T10:14:08.546Z,52.90
2023-03-30T10:16:37.182Z,52.80
2023-03-30T10:19:18.185Z,52.90
2023-03-30T10:21:47.448Z,52.90
2023-03-30T10:24:15.458Z,52.90
2023-03-30T10:26:47.372Z,52.90
2023-03-30T10:29:22.170Z,52.90
2023-03-30T10:31:58.289Z,53.10
2023-03-30T10:34:48.557Z,53.20
2023-03-30T10:37:40.770Z,53.30
2023-03-30T10:40:22.048Z,53.60
2023-03-30T10:42:57.162Z,54.40
2023-03-30T10:45:45.639Z,54.50
2023-03-30T10:48:42.783Z,55.00
2023-03-30T10:51:22.426Z,55.40
2023-03-30T10:54:11.391Z,55.60
2023-03-30T10:56:49.742Z,56.00
2023-03-30T10:59:33.060Z,56.10
2023-03-30T11:02:26.687Z,56.10
2023-03-30T11:05:12.696Z,56.40
2023-03-30T11:07:55.841Z,56.70
2023-03-30T11:10:46.330Z,56.90
2023-03-30T11:13:21.989Z,57.30
2023-03-30T11:15:57.743Z,57.30
2023-03-30T11:18:33.103Z,57.80
2023-03-30T11:21:11.799Z,58.30
2023-03-30T11:24:13.358Z,58.50
2023-03-30T11:27:17.774Z,58.70
2023-03-30T11:30:09.405Z,58.70
2023-03-30T11:33:12.459Z,58.80
2023-03-30T11:35:54.325Z,59.00
2023-03-30T11:38:54.919Z,59.30
2023-03-30T11:41:51.052Z,59.60
2023-03-30T11:44:19.002Z,59.50
2023-03-30T11:46:53.720Z,59.90
2023-03-30T11:49:35.359Z,60.80
2023-03-30T11:52:47.982Z,60.80
2023-03-30T11:55:24.099Z,60.80
2023-03-30T11:58:07.794Z,60.90
2023-03-30T12:01:05.272Z,61.20
2023-03-30T12:03:42.987Z,61.80
2023-03-30T12:06:39.358Z,62.20
2023-03-30T12:09:29.566Z,63.00
2023-03-30T12:12:16.343Z,63.00
2023-03-30T12:15:04.109Z,63.20
2023-03-30T12:17:44.108Z,63.50
2023-03-30T12:20:18.397Z,63.20
2023-03-30T12:23:02.721Z,64.00
2023-03-30T12:26:10.842Z,64.30
2023-03-30T12:29:11.286Z,64.20
2023-03-30T12:31:57.142Z,64.10
2023-03-30T12:34:28.888Z,64.00
2023-03-30T12:36:58.550Z,64.00
2023-03-30T12:39:31.626Z,64.00
2023-03-30T12:42:09.534Z,64.00
2023-03-30T12:44:47.200Z,64.10
2023-03-30T12:47:19.499Z,64.80
2023-03-30T12:50:31.102Z,64.70
2023-03-30T12:53:05.404Z,65.00
2023-03-30T12:55:58.019Z,65.20
2023-03-30T12:58:59.115Z,65.50
2023-03-30T13:01:51.815Z,65.40
2023-03-30T13:04:25.587Z,65.40
2023-03-30T13:06:56.898Z,65.40
2023-03-30T13:09:31.823Z,65.40
2023-03-30T13:12:01.007Z,65.40
2023-03-30T13:14:36.054Z,65.40
2023-03-30T13:17:04.530Z,65.50
2023-03-30T13:19:32.973Z,65.50
2023-03-30T13:22:13.697Z,65.60
2023-03-30T13:24:58.117Z,65.80
2023-03-30T13:27:37.863Z,65.80
2023-03-30T13:30:12.475Z,65.70
2023-03-30T13:33:02.329Z,65.60
2023-03-30T13:35:49.544Z,65.60
2023-03-30T13:38:45.201Z,65.40
2023-03-30T13:41:13.315Z,65.20
2023-03-30T13:43:54.894Z,65.00
2023-03-30T13:47:02.077Z,65.10
2023-03-30T13:49:57.823Z,65.00
2023-03-30T13:52:47.269Z,64.80
2023-03-30T13:55:31.216Z,63.60
2023-03-30T13:58:09.525Z,62.30
2023-03-30T14:01:16.159Z,61.60
2023-03-30T14:03:59.800Z,60.80
2023-03-30T14:06:30.989Z,60.40
2023-03-30T14:09:08.065Z,61.00
2023-03-30T14:11:46.668Z,61.80
2023-03-30T14:14:23.354Z,62.30
2023-03-30T14:16:51.786Z,62.50
2023-03-30T14:19:28.887Z,62.80
2023-03-30T14:22:05.495Z,62.70
2023-03-30T14:24:35.692Z,62.80
2023-03-30T14:27:07.195Z,62.60
2023-03-30T14:29:45.331Z,62.60
2023-03-30T14:32:16.567Z,62.40
2023-03-30T14:34:50.251Z,62.30
2023-03-30T14:37:21.518Z,62.40
2023-03-30T14:39:56.199Z,62.20
2023-03-30T14:42:34.575Z,62.20
2023-03-30T14:45:03.603Z,62.20
2023-03-30T14:47:32.918Z,62.30
2023-03-30T14:50:06.138Z,62.40
2023-03-30T14:52:41.074Z,62.50
2023-03-30T14:55:18.874Z,62.70
2023-03-30T14:57:48.034Z,62.90
2023-03-30T15:00:23.077Z,63.00
2023-03-30T15:03:19.672Z,63.10
2023-03-30T15:05:55.479Z,63.30
2023-03-30T15:08:27.453Z,63.60
2023-03-30T15:10:58.689Z,63.60
2023-03-30T15:13:38.210Z,64.10
2023-03-30T15:16:08.146Z,63.90
2023-03-30T15:18:38.042Z,64.00
2023-03-30T15:21:10.261Z,64.10
2023-03-30T15:23:41.473Z,64.10
2023-03-30T15:26:12.432Z,64.00
2023-03-30T15:28:45.616Z,64.40
2023-03-30T15:31:15.806Z,64.20
2023-03-30T15:33:51.785Z,64.40
2023-03-30T15:36:38.171Z,64.40
2023-03-30T15:39:21.542Z,64.30
2023-03-30T15:42:10.173Z,64.40
2023-03-30T15:44:40.910Z,64.40
2023-03-30T15:47:18.331Z,64.40
2023-03-30T15:49:50.998Z,64.30
2023-03-30T15:52:25.013Z,64.20
2023-03-30T15:54:55.699Z,64.10
2023-03-30T15:57:27.938Z,63.80
2023-03-30T16:00:02.099Z,63.60
2023-03-30T16:02:32.833Z,63.30
2023-03-30T16:05:06.273Z,63.60
2023-03-30T16:07:36.589Z,63.90
2023-03-30T16:10:04.983Z,64.10
2023-03-30T16:12:42.827Z,64.10
2023-03-30T16:15:19.448Z,64.20
2023-03-30T16:17:48.027Z,64.30
2023-03-30T16:20:27.629Z,64.40
2023-03-30T16:22:56.559Z,64.40
2023-03-30T16:25:34.499Z,64.60
2023-03-30T16:28:17.929Z,65.00
2023-03-30T16:30:48.624Z,64.90
2023-03-30T16:33:17.596Z,65.00
2023-03-30T16:35:46.714Z,65.60
2023-03-30T16:38:19.507Z,65.40
2023-03-30T16:40:59.773Z,65.40
2023-03-30T16:43:29.307Z,65.50
2023-03-30T16:45:58.971Z,65.50
2023-03-30T16:48:30.604Z,65.80
2023-03-30T16:50:58.917Z,65.80
2023-03-30T16:53:30.334Z,66.20
2023-03-30T16:55:58.864Z,66.30
2023-03-30T16:58:29.171Z,66.50
2023-03-30T17:01:04.655Z,66.60
2023-03-30T17:03:35.485Z,66.60
2023-03-30T17:06:03.938Z,66.50
2023-03-30T17:08:33.019Z,66.30
2023-03-30T17:11:05.334Z,66.40
2023-03-30T17:13:35.517Z,66.50
2023-03-30T17:16:03.873Z,66.50
2023-03-30T17:18:33.100Z,66.60
2023-03-30T17:21:06.198Z,66.80
2023-03-30T17:23:35.721Z,67.70
2023-03-30T17:26:04.844Z,68.50
2023-03-30T17:28:35.928Z,69.30
2023-03-30T17:31:09.930Z,70.00
2023-03-30T17:33:40.599Z,70.50
2023-03-30T17:36:25.123Z,70.80
2023-03-30T17:38:58.252Z,71.30
2023-03-30T17:41:29.661Z,71.50
2023-03-30T17:43:59.259Z,71.90
2023-03-30T17:46:29.139Z,72.10
2023-03-30T17:49:00.604Z,72.00
2023-03-30T17:51:29.521Z,71.90
2023-03-30T17:53:59.015Z,71.70
2023-03-30T17:56:29.080Z,71.80
2023-03-30T17:58:59.564Z,72.00
2023-03-30T18:01:29.548Z,71.90
2023-03-30T18:03:58.546Z,71.60
2023-03-30T18:06:28.185Z,71.90
2023-03-30T18:08:57.699Z,72.10
2023-03-30T18:11:28.047Z,72.10
2023-03-30T18:13:58.674Z,72.20
2023-03-30T18:16:27.415Z,72.20
2023-03-30T18:19:00.317Z,72.30
2023-03-30T18:21:30.168Z,72.20
2023-03-30T18:24:02.286Z,72.30
2023-03-30T18:26:35.392Z,72.40
2023-03-30T18:29:24.580Z,72.60
2023-03-30T18:31:55.489Z,72.50
2023-03-30T18:34:31.514Z,72.40
2023-03-30T18:37:01.351Z,72.40
2023-03-30T18:39:31.207Z,72.50
2023-03-30T18:42:02.753Z,72.50
2023-03-30T18:44:34.987Z,72.50
2023-03-30T18:47:05.040Z,72.50
2023-03-30T18:49:34.801Z,72.40
2023-03-30T18:52:05.906Z,73.00
2023-03-30T18:54:41.985Z,72.50
2023-03-30T18:57:11.900Z,72.60
2023-03-30T18:59:42.913Z,72.90
2023-03-30T19:02:13.227Z,72.80
2023-03-30T19:04:43.912Z,72.80
2023-03-30T19:07:13.014Z,72.80
2023-03-30T19:09:43.532Z,73.10
2023-03-30T19:12:15.878Z,73.00
2023-03-30T19:14:47.138Z,73.20
2023-03-30T19:17:19.185Z,73.20
2023-03-30T19:19:50.752Z,73.10
2023-03-30T19:22:20.359Z,73.10
2023-03-30T19:24:55.195Z,73.20
2023-03-30T19:27:24.603Z,73.20
2023-03-30T19:29:54.486Z,73.30
2023-03-30T19:32:27.285Z,73.40
2023-03-30T19:34:58.641Z,73.30
2023-03-30T19:37:31.816Z,73.60
2023-03-30T19:40:08.442Z,73.60
2023-03-30T19:42:39.211Z,73.60
2023-03-30T19:45:10.841Z,73.80
2023-03-30T19:47:41.261Z,73.60
2023-03-30T19:50:16.805Z,73.80
2023-03-30T19:52:49.465Z,74.00
2023-03-30T19:55:22.346Z,74.10
2023-03-30T19:57:51.214Z,74.20
2023-03-30T20:00:22.508Z,74.20
2023-03-30T20:02:54.697Z,74.20
2023-03-30T20:05:26.193Z,74.60
2023-03-30T20:07:55.184Z,74.90
2023-03-30T20:10:28.910Z,74.90
2023-03-30T20:12:58.010Z,75.00
2023-03-30T20:15:27.716Z,75.00
2023-03-30T20:17:57.495Z,75.20
2023-03-30T20:20:27.204Z,75.50
2023-03-30T20:22:57.153Z,75.50
2023-03-30T20:25:26.045Z,75.50
2023-03-30T20:27:54.717Z,75.70
2023-03-30T20:30:24.232Z,75.70
2023-03-30T20:33:06.725Z,75.90
2023-03-30T20:35:38.267Z,75.80
2023-03-30T20:38:08.840Z,75.80
2023-03-30T20:40:37.898Z,76.10
2023-03-30T20:43:11.245Z,76.20
2023-03-30T20:45:46.733Z,76.30
2023-03-30T20:48:26.779Z,76.30
2023-03-30T20:50:56.536Z,76.20
2023-03-30T20:53:26.453Z,76.30
2023-03-30T20:55:55.982Z,76.50
2023-03-30T20:58:26.526Z,76.60
2023-03-30T21:00:58.466Z,76.50
2023-03-30T21:03:29.803Z,76.40
2023-03-30T21:06:03.965Z,76.20
2023-03-30T21:08:32.625Z,76.30
2023-03-30T21:11:01.769Z,76.30
2023-03-30T21:13:30.597Z,76.40
2023-03-30T21:16:05.498Z,76.60
2023-03-30T21:18:34.987Z,76.60
2023-03-30T21:21:03.788Z,76.60
2023-03-30T21:23:31.629Z,76.50
2023-03-30T21:26:03.250Z,76.50
2023-03-30T21:28:31.700Z,76.70
2023-03-30T21:31:02.679Z,76.40
2023-03-30T21:33:30.936Z,76.50
2023-03-30T21:36:00.316Z,76.60
2023-03-30T21:38:29.848Z,76.90
2023-03-30T21:41:02.612Z,76.80
2023-03-30T21:43:33.025Z,76.80
2023-03-30T21:46:04.504Z,76.80
2023-03-30T21:48:36.561Z,76.70
2023-03-30T21:51:14.566Z,76.60
2023-03-30T21:53:43.967Z,76.60
2023-03-30T21:56:13.260Z,76.50
2023-03-30T21:58:41.441Z,76.50
2023-03-30T22:01:12.957Z,76.50
2023-03-30T22:03:42.301Z,76.50
2023-03-30T22:06:13.494Z,76.40
2023-03-30T22:08:42.529Z,76.10
2023-03-30T22:11:16.959Z,76.20
2023-03-30T22:13:47.588Z,76.20
2023-03-30T22:16:26.121Z,76.20
2023-03-30T22:18:55.000Z,76.10
2023-03-30T22:21:25.286Z,76.10
2023-03-30T22:23:55.131Z,76.10
2023-03-30T22:26:23.911Z,76.00
2023-03-30T22:28:51.900Z,76.00
2023-03-30T22:31:20.236Z,76.00
2023-03-30T22:33:48.754Z,76.00
2023-03-30T22:36:19.896Z,76.10
2023-03-30T22:38:49.712Z,76.10
2023-03-30T22:41:24.355Z,76.20
2023-03-30T22:43:57.051Z,76.20
2023-03-30T22:46:27.872Z,76.20
2023-03-30T22:48:56.265Z,76.20
2023-03-30T22:51:28.538Z,76.20
2023-03-30T22:54:00.761Z,76.20
2023-03-30T22:56:30.400Z,76.20
2023-03-30T22:58:59.799Z,76.20
2023-03-30T23:01:32.794Z,76.20
2023-03-30T23:04:01.793Z,76.20
2023-03-30T23:06:31.492Z,76.20
2023-03-30T23:09:02.096Z,76.10
2023-03-30T23:11:32.034Z,76.10
2023-03-30T23:14:05.673Z,76.20
2023-03-30T23:16:37.949Z,76.10
2023-03-30T23:19:07.916Z,76.00
2023-03-30T23:21:36.524Z,76.00
2023-03-30T23:24:08.061Z,76.20
2023-03-30T23:26:36.961Z,76.30
2023-03-30T23:29:05.643Z,76.20
2023-03-30T23:31:35.096Z,76.20
2023-03-30T23:34:03.139Z,76.20
2023-03-30T23:36:31.486Z,76.30
2023-03-30T23:38:59.455Z,76.30
2023-03-30T23:41:29.264Z,76.50
2023-03-30T23:43:57.222Z,76.30
2023-03-30T23:46:25.950Z,76.20
2023-03-30T23:48:54.598Z,76.20
2023-03-30T23:51:22.876Z,76.20
2023-03-30T23:53:54.849Z,76.20
2023-03-30T23:56:27.657Z,76.40
2023-03-30T23:58:55.922Z,76.30
